WXM80 ListenWXM80 Stop

You find our weather info also at:

UK Metoffice

WeatherCloud

Weather Underground

Northeastern Weather Network

AWEKAS

Citizen Weather Observer Program (CWOP)

HAMweather, WeatherForYou, PWS Weather


Weather Underground History page Text

Daily Summary for October 13, 2017 Units:  Metric    English   Both
« Previous Day
Next Day »
Daily Weekly Monthly Yearly Custom
  High: Low: Average:
Temperature: 21.6 °C 12.4 °C 15.9 °C
Dew Point: 15.1 °C 9.3 °C 12.8 °C
Humidity: 92 % 60 % 82 %
Wind Speed: 15.1 km/h 0 km/h 4.3 km/h
Wind Gust: 24.1 km/h - -
Wind:- - East
Pressure: 1029.7 hPa 1024.3 hPa -
Precipitation: 0 mm    
Historical Graphs
 
 
Tabular Data for October 13, 2017
Time Temperature Dew Point Pressure Wind Wind Speed Wind Gust Humidity Rainfall Rate (Hourly)
00:01 13.3 °C 9.7 °C 1027.7 hPa East 1.1 km/h 5.6 km/h 79 % 0 mm
00:06 13.2 °C 9.4 °C 1027.7 hPa SSE 1.1 km/h 9.3 km/h 78 % 0 mm
00:11 13.1 °C 9.5 °C 1027.7 hPa ESE 2.9 km/h 4.8 km/h 79 % 0 mm
00:16 13 °C 9.4 °C 1029 hPa SE 2.1 km/h 5.6 km/h 79 % 0 mm
00:21 12.9 °C 9.3 °C 1028.3 hPa SE 2.9 km/h 9.3 km/h 79 % 0 mm
00:26 12.8 °C 9.4 °C 1029 hPa ESE 1.6 km/h 7.4 km/h 80 % 0 mm
00:31 12.8 °C 9.4 °C 1028 hPa SE 1 km/h 3.7 km/h 80 % 0 mm
00:36 12.7 °C 9.7 °C 1029.3 hPa ESE 2.1 km/h 3.7 km/h 82 % 0 mm
00:41 12.7 °C 9.8 °C 1029.3 hPa ENE 3.4 km/h 11.1 km/h 83 % 0 mm
00:46 12.7 °C 9.8 °C 1029.3 hPa ENE 1.4 km/h 3.7 km/h 83 % 0 mm
00:51 12.7 °C 9.8 °C 1029.3 hPa East 2.9 km/h 5.6 km/h 83 % 0 mm
00:56 12.7 °C 9.9 °C 1028 hPa ESE 0.6 km/h 3.2 km/h 83 % 0 mm
01:01 12.7 °C 9.8 °C 1028.3 hPa East 1.8 km/h 3.7 km/h 83 % 0 mm
01:06 12.7 °C 9.9 °C 1028.3 hPa SSE 1.4 km/h 11.3 km/h 83 % 0 mm
01:11 12.7 °C 9.8 °C 1028.3 hPa SE 3.4 km/h 5.6 km/h 83 % 0 mm
01:16 12.7 °C 9.8 °C 1028.3 hPa SE 2.9 km/h 5.6 km/h 83 % 0 mm
01:21 12.7 °C 9.8 °C 1028.3 hPa ESE 1.8 km/h 7.4 km/h 83 % 0 mm
01:26 12.6 °C 9.7 °C 1028.3 hPa Calm   3.7 km/h 83 % 0 mm
01:27 12.6 °C 9.8 °C 1028 hPa ESE 0.2 km/h 1.6 km/h 83 % 0 mm
01:32 12.6 °C 9.9 °C 1028.3 hPa SE 1.9 km/h 3.7 km/h 84 % 0 mm
01:37 12.5 °C 9.9 °C 1028.3 hPa ESE 1 km/h 3.7 km/h 84 % 0 mm
01:42 12.5 °C 9.9 °C 1028.3 hPa ESE 1.1 km/h 3.2 km/h 84 % 0 mm
01:47 12.4 °C 9.8 °C 1028.3 hPa SE 0.3 km/h 1.9 km/h 84 % 0 mm
01:52 12.4 °C 9.8 °C 1028 hPa ESE 1.6 km/h 3.7 km/h 84 % 0 mm
01:57 12.4 °C 10 °C 1029.7 hPa East 0.8 km/h 1.9 km/h 85 % 0 mm
02:02 12.4 °C 9.9 °C 1029.3 hPa East 0.6 km/h 1.9 km/h 85 % 0 mm
02:07 12.4 °C 9.9 °C 1028.3 hPa East 1.8 km/h 3.7 km/h 85 % 0 mm
02:12 12.4 °C 9.9 °C 1028 hPa East 1.9 km/h 3.7 km/h 85 % 0 mm
02:17 12.4 °C 9.9 °C 1028.3 hPa East 2.3 km/h 3.7 km/h 85 % 0 mm
02:22 12.4 °C 10.2 °C 1028 hPa East 2.7 km/h 5.6 km/h 86 % 0 mm
02:27 12.5 °C 10.2 °C 1028 hPa East 2.9 km/h 5.6 km/h 86 % 0 mm
02:32 12.6 °C 10.4 °C 1028 hPa East 2.6 km/h 3.7 km/h 87 % 0 mm
02:37 12.6 °C 10.5 °C 1028 hPa East 2.3 km/h 5.6 km/h 87 % 0 mm
02:43 12.7 °C 10.6 °C 1027.7 hPa ENE 1.8 km/h 5.6 km/h 87 % 0 mm
02:48 12.8 °C 10.7 °C 1028 hPa East 2.1 km/h 3.7 km/h 87 % 0 mm
02:53 12.8 °C 10.7 °C 1028 hPa East 2.9 km/h 5.6 km/h 87 % 0 mm
02:58 12.9 °C 10.8 °C 1028 hPa East 5.1 km/h 8 km/h 87 % 0 mm
03:03 13 °C 10.9 °C 1028 hPa ENE 7.9 km/h 12.9 km/h 87 % 0 mm
03:08 13.2 °C 11.2 °C 1028 hPa ENE 9.3 km/h 18.5 km/h 88 % 0 mm
03:13 13.2 °C 11.1 °C 1027.7 hPa East 5.3 km/h 9.3 km/h 87 % 0 mm
03:18 13.3 °C 11.2 °C 1027.7 hPa East 10.5 km/h 17.7 km/h 87 % 0 mm
03:23 13.3 °C 11.2 °C 1027.7 hPa ENE 12.4 km/h 24.1 km/h 87 % 0 mm
03:28 13.3 °C 11.2 °C 1028 hPa ENE 10.6 km/h 16.7 km/h 87 % 0 mm
03:33 13.4 °C 11.3 °C 1027.7 hPa East 7.9 km/h 16.1 km/h 87 % 0 mm
03:38 13.4 °C 11.3 °C 1027.7 hPa ENE 15.1 km/h 22.2 km/h 87 % 0 mm
03:43 13.3 °C 11.1 °C 1028 hPa East 11.1 km/h 18.5 km/h 86 % 0 mm
03:48 13.3 °C 11 °C 1028 hPa ENE 12.7 km/h 18.5 km/h 86 % 0 mm
03:53 13.2 °C 10.9 °C 1027.7 hPa ENE 12.1 km/h 18.5 km/h 86 % 0 mm
03:58 13.2 °C 10.9 °C 1028 hPa NE 12.2 km/h 22.2 km/h 86 % 0 mm
04:03 13.2 °C 11.1 °C 1028 hPa ENE 13.4 km/h 18.5 km/h 87 % 0 mm
04:08 13.2 °C 10.9 °C 1027.7 hPa ENE 13.2 km/h 24.1 km/h 86 % 0 mm
04:13 13.2 °C 11.1 °C 1028 hPa ENE 7.9 km/h 12.9 km/h 87 % 0 mm
04:18 13.2 °C 11.1 °C 1028 hPa ENE 12.9 km/h 20.4 km/h 87 % 0 mm
04:23 13.2 °C 10.9 °C 1028 hPa ENE 9.8 km/h 18.5 km/h 86 % 0 mm
04:28 13.2 °C 11.1 °C 1028 hPa East 10 km/h 14.8 km/h 87 % 0 mm
04:34 13.2 °C 11.1 °C 1028 hPa NE 11.6 km/h 20.4 km/h 87 % 0 mm
04:39 13.2 °C 11.1 °C 1028 hPa ENE 8.2 km/h 16.7 km/h 87 % 0 mm
04:44 13.2 °C 11.1 °C 1028 hPa ENE 6.3 km/h 13 km/h 87 % 0 mm
04:49 13.2 °C 11.2 °C 1028 hPa ENE 6.6 km/h 14.8 km/h 88 % 0 mm
04:54 13.2 °C 11.1 °C 1029.3 hPa ENE 9.2 km/h 18.5 km/h 87 % 0 mm
04:59 13.2 °C 11.1 °C 1029.3 hPa ENE 10 km/h 18.5 km/h 87 % 0 mm
05:04 13.2 °C 11.2 °C 1029.7 hPa ENE 6.3 km/h 11.1 km/h 88 % 0 mm
05:09 13.2 °C 11.3 °C 1028.3 hPa ENE 7.2 km/h 11.1 km/h 88 % 0 mm
05:14 13.2 °C 11.1 °C 1028.3 hPa ENE 12.4 km/h 18.5 km/h 87 % 0 mm
05:19 13.2 °C 11.3 °C 1028.3 hPa ENE 6.6 km/h 20.9 km/h 88 % 0 mm
05:24 13.3 °C 11.3 °C 1028 hPa ENE 8 km/h 13 km/h 88 % 0 mm
05:29 13.3 °C 11.3 °C 1029.7 hPa ENE 5.8 km/h 11.1 km/h 88 % 0 mm
05:34 13.3 °C 11.4 °C 1029.3 hPa East 3.5 km/h 7.4 km/h 88 % 0 mm
05:39 13.3 °C 11.4 °C 1028.3 hPa East 5.3 km/h 11.1 km/h 88 % 0 mm
05:44 13.4 °C 11.4 °C 1028.3 hPa ENE 5 km/h 16.7 km/h 88 % 0 mm
05:49 13.4 °C 11.5 °C 1028 hPa NE 6.6 km/h 13 km/h 88 % 0 mm
05:54 13.4 °C 11.5 °C 1028 hPa ENE 9.3 km/h 14.8 km/h 88 % 0 mm
05:59 13.4 °C 11.5 °C 1028.3 hPa ENE 5.6 km/h 13 km/h 88 % 0 mm
06:04 13.4 °C 11.5 °C 1029 hPa ENE 6.4 km/h 16.7 km/h 88 % 0 mm
06:09 13.5 °C 11.6 °C 1028.3 hPa ENE 8.9 km/h 17.7 km/h 88 % 0 mm
06:14 13.5 °C 11.6 °C 1029 hPa ENE 10.3 km/h 14.8 km/h 88 % 0 mm
06:19 13.5 °C 11.6 °C 1028.3 hPa ENE 8.9 km/h 14.8 km/h 88 % 0 mm
06:24 13.6 °C 11.6 °C 1028.3 hPa East 10.3 km/h 18.5 km/h 88 % 0 mm
06:30 13.5 °C 11.6 °C 1028.3 hPa East 6.8 km/h 13 km/h 88 % 0 mm
06:35 13.6 °C 11.6 °C 1028.3 hPa East 10.9 km/h 16.7 km/h 88 % 0 mm
06:40 13.6 °C 11.6 °C 1028.3 hPa ENE 12.6 km/h 19.3 km/h 88 % 0 mm
06:45 13.6 °C 11.6 °C 1028.3 hPa ENE 8.5 km/h 14.8 km/h 88 % 0 mm
06:50 13.6 °C 11.6 °C 1028.3 hPa East 4.3 km/h 9.3 km/h 88 % 0 mm
06:55 13.6 °C 11.8 °C 1028.3 hPa ENE 8.9 km/h 20.9 km/h 89 % 0 mm
07:00 13.6 °C 11.8 °C 1028.3 hPa East 8.7 km/h 14.8 km/h 89 % 0 mm
07:05 13.5 °C 11.6 °C 1028 hPa East 10.8 km/h 16.7 km/h 88 % 0 mm
07:10 13.4 °C 11.5 °C 1028.3 hPa ENE 12.7 km/h 18.5 km/h 88 % 0 mm
07:15 13.4 °C 11.5 °C 1028.3 hPa ENE 9 km/h 16.7 km/h 88 % 0 mm
07:20 13.4 °C 11.6 °C 1028.3 hPa ENE 13 km/h 22.2 km/h 89 % 0 mm
07:25 13.4 °C 11.6 °C 1028.3 hPa ENE 12.6 km/h 18.5 km/h 89 % 0 mm
07:30 13.4 °C 11.6 °C 1028.7 hPa East 11.1 km/h 18.5 km/h 89 % 0 mm
07:35 13.4 °C 11.7 °C 1028.7 hPa ENE 10.9 km/h 18.5 km/h 89 % 0 mm
07:40 13.4 °C 11.7 °C 1028.7 hPa NE 7.9 km/h 14.8 km/h 89 % 0 mm
07:45 13.4 °C 11.7 °C 1028.3 hPa ENE 14 km/h 20.4 km/h 89 % 0 mm
07:50 13.4 °C 11.7 °C 1028.7 hPa ENE 10.1 km/h 16.7 km/h 89 % 0 mm
07:55 13.4 °C 11.7 °C 1028.7 hPa ENE 10.3 km/h 16.7 km/h 89 % 0 mm
08:00 13.4 °C 11.7 °C 1028.7 hPa ENE 9.7 km/h 18.5 km/h 89 % 0 mm
08:05 13.4 °C 11.8 °C 1028.7 hPa East 10.8 km/h 18.5 km/h 90 % 0 mm
08:10 13.4 °C 11.7 °C 1029 hPa ENE 8.5 km/h 14.8 km/h 89 % 0 mm
08:15 13.4 °C 11.7 °C 1029 hPa ENE 10.5 km/h 14.8 km/h 89 % 0 mm
08:20 13.4 °C 11.6 °C 1029 hPa ENE 13.5 km/h 18.5 km/h 89 % 0 mm
08:25 13.4 °C 11.6 °C 1029 hPa ENE 8.7 km/h 16.7 km/h 89 % 0 mm
08:30 13.4 °C 11.6 °C 1029 hPa ENE 12.7 km/h 18.5 km/h 89 % 0 mm
08:35 13.3 °C 11.6 °C 1029 hPa East 9.2 km/h 12.9 km/h 89 % 0 mm
08:40 13.3 °C 11.6 °C 1029 hPa ENE 9.2 km/h 14.5 km/h 89 % 0 mm
08:45 13.4 °C 11.8 °C 1029 hPa ENE 10.6 km/h 11.3 km/h 90 % 0 mm
08:50 13.4 °C 11.8 °C 1029 hPa East 8.7 km/h 14.8 km/h 90 % 0 mm
08:55 13.5 °C 11.9 °C 1028.7 hPa East 7.6 km/h 13 km/h 90 % 0 mm
09:00 13.5 °C 11.9 °C 1029 hPa ENE 8.9 km/h 14.8 km/h 90 % 0 mm
09:06 13.5 °C 11.9 °C 1029 hPa ENE 10.3 km/h 18.5 km/h 90 % 0 mm
09:11 13.5 °C 11.9 °C 1029 hPa ENE 9.7 km/h 24.1 km/h 90 % 0 mm
09:16 13.5 °C 11.9 °C 1029 hPa ENE 8 km/h 14.5 km/h 90 % 0 mm
09:21 13.6 °C 11.9 °C 1028.7 hPa ENE 11.3 km/h 19.3 km/h 90 % 0 mm
09:26 13.6 °C 11.9 °C 1028.7 hPa ENE 11.3 km/h 22.5 km/h 90 % 0 mm
09:31 13.6 °C 12 °C 1028.7 hPa ENE 9.7 km/h 22.5 km/h 90 % 0 mm
09:36 13.6 °C 12 °C 1028.7 hPa ENE 11.3 km/h 16.1 km/h 90 % 0 mm
09:41 13.7 °C 12.3 °C 1028.7 hPa ENE 4.8 km/h 16.1 km/h 91 % 0 mm
09:46 13.9 °C 12.4 °C 1028.7 hPa ENE 4.8 km/h 19.3 km/h 91 % 0 mm
09:51 13.9 °C 12.3 °C 1028.7 hPa NE 7.7 km/h 12.9 km/h 90 % 0 mm
09:56 14 °C 12.4 °C 1028.7 hPa NE 6 km/h 16.7 km/h 90 % 0 mm
10:01 14.3 °C 12.8 °C 1028.7 hPa ENE 4.5 km/h 13 km/h 91 % 0 mm
10:06 14.7 °C 13.3 °C 1028.7 hPa ENE 3.2 km/h 7.4 km/h 91 % 0 mm
10:11 15 °C 12.8 °C 1028.7 hPa ENE 3.7 km/h 7.4 km/h 87 % 0 mm
10:16 15.3 °C 12.8 °C 1028.7 hPa ENE 4.3 km/h 5.6 km/h 85 % 0 mm
10:21 15.6 °C 12.9 °C 1029 hPa East 1.8 km/h 5.6 km/h 84 % 0 mm
10:26 15.8 °C 12.4 °C 1028.7 hPa ESE 2.1 km/h 5.6 km/h 80 % 0 mm
10:31 16 °C 12.3 °C 1029 hPa ENE 2.6 km/h 5.6 km/h 79 % 0 mm
10:36 16.2 °C 12.2 °C 1029 hPa ESE 4 km/h 7.4 km/h 77 % 0 mm
10:41 16.4 °C 12.3 °C 1029 hPa ENE 2.4 km/h 5.6 km/h 77 % 0 mm
10:44 16.4 °C 12.2 °C 1029 hPa ENE 1.6 km/h 3.7 km/h 76 % 0 mm
10:49 16.5 °C 12.3 °C 1029 hPa ENE 1.4 km/h 3.7 km/h 76 % 0 mm
10:54 16.6 °C 12.1 °C 1029 hPa NE 1.8 km/h 5.6 km/h 75 % 0 mm
10:59 16.7 °C 12.4 °C 1029 hPa ENE 1.9 km/h 5.6 km/h 76 % 0 mm
11:04 16.9 °C 12.5 °C 1029 hPa ENE 3.2 km/h 7.4 km/h 75 % 0 mm
11:09 17.1 °C 12.7 °C 1029 hPa ENE 1.4 km/h 5.6 km/h 75 % 0 mm
11:14 17.3 °C 12.6 °C 1028.7 hPa ENE 0.6 km/h 3.7 km/h 74 % 0 mm
11:19 17.5 °C 12.8 °C 1028.7 hPa ENE 1.9 km/h 5.6 km/h 74 % 0 mm
11:24 17.9 °C 12.8 °C 1028.7 hPa NE 0.8 km/h 1.9 km/h 72 % 0 mm
11:29 18.3 °C 12.9 °C 1028.7 hPa NNE 1.3 km/h 3.7 km/h 71 % 0 mm
11:34 18.5 °C 12.9 °C 1028.7 hPa NE 4.5 km/h 8 km/h 70 % 0 mm
11:39 18.6 °C 13.1 °C 1028.7 hPa NE 2.3 km/h 5.6 km/h 70 % 0 mm
11:44 19.1 °C 13.4 °C 1028.7 hPa ENE 4.8 km/h 7.4 km/h 70 % 0 mm
11:49 19.6 °C 13.7 °C 1028.3 hPa NE 2.6 km/h 11.1 km/h 69 % 0 mm
11:54 20.1 °C 14.2 °C 1028.3 hPa NE 4.5 km/h 11.1 km/h 69 % 0 mm
11:59 20.3 °C 13.7 °C 1028.3 hPa NE 6 km/h 7.4 km/h 66 % 0 mm
12:04 20.4 °C 13.7 °C 1028.3 hPa ENE 5.3 km/h 11.3 km/h 65 % 0 mm
12:10 20.4 °C 13.4 °C 1028.3 hPa East 4.5 km/h 8 km/h 64 % 0 mm
12:15 20.4 °C 13.8 °C 1028 hPa NE 4.8 km/h 7.4 km/h 66 % 0 mm
12:20 20.6 °C 14.2 °C 1028 hPa ENE 3.5 km/h 7.4 km/h 67 % 0 mm
12:25 20.7 °C 13.8 °C 1028 hPa ENE 0.5 km/h 3.7 km/h 65 % 0 mm
12:30 20.8 °C 13.5 °C 1028 hPa ENE 3.7 km/h 5.6 km/h 63 % 0 mm
12:35 20.8 °C 13.2 °C 1028 hPa NE 6.6 km/h 11.1 km/h 62 % 0 mm
12:40 20.9 °C 13.8 °C 1027.7 hPa NE 2.1 km/h 3.7 km/h 64 % 0 mm
12:45 20.9 °C 12.9 °C 1027.7 hPa ENE 4.3 km/h 8 km/h 60 % 0 mm
12:50 20.9 °C 13.1 °C 1027.7 hPa ENE 4 km/h 14.8 km/h 61 % 0 mm
12:55 20.9 °C 13.8 °C 1027.7 hPa NE 6.3 km/h 12.9 km/h 64 % 0 mm
13:00 20.9 °C 13.9 °C 1027.7 hPa ENE 3.9 km/h 5.6 km/h 64 % 0 mm
13:05 20.9 °C 13.1 °C 1027.7 hPa ENE 5.8 km/h 13 km/h 61 % 0 mm
13:10 20.9 °C 13.4 °C 1027.7 hPa NE 2.6 km/h 5.6 km/h 62 % 0 mm
13:15 21.1 °C 14.1 °C 1027.7 hPa ENE 4.7 km/h 7.4 km/h 64 % 0 mm
13:20 21.2 °C 13.6 °C 1027.3 hPa ENE 4.7 km/h 6.4 km/h 62 % 0 mm
13:25 21.2 °C 13.9 °C 1027.3 hPa East 5.5 km/h 16.7 km/h 63 % 0 mm
13:30 21.2 °C 13.8 °C 1027.3 hPa ENE 3.1 km/h 7.4 km/h 63 % 0 mm
13:35 21.3 °C 13.7 °C 1027.3 hPa East 3.9 km/h 7.4 km/h 62 % 0 mm
13:40 21.4 °C 14.1 °C 1027.3 hPa ENE 6.1 km/h 6.1 km/h 63 % 0 mm
13:46 21.6 °C 14.2 °C 1027.3 hPa ENE 5.5 km/h 11.3 km/h 63 % 0 mm
13:51 21.4 °C 13.8 °C 1027.3 hPa ENE 4.8 km/h 12.9 km/h 62 % 0 mm
13:56 21.4 °C 13.6 °C 1027.3 hPa ENE 4.8 km/h 12.9 km/h 61 % 0 mm
14:01 21.2 °C 13.7 °C 1027.3 hPa ENE 4.2 km/h 13 km/h 62 % 0 mm
14:06 21 °C 13.4 °C 1027 hPa ENE 7.2 km/h 11.1 km/h 62 % 0 mm
14:11 20.8 °C 13.7 °C 1027 hPa ENE 5.6 km/h 11.1 km/h 64 % 0 mm
14:16 20.6 °C 13.6 °C 1027 hPa ENE 5.1 km/h 9.3 km/h 64 % 0 mm
14:21 20.2 °C 13.7 °C 1027 hPa ENE 8.4 km/h 11.3 km/h 66 % 0 mm
14:26 20 °C 13.7 °C 1026.6 hPa ENE 8.9 km/h 14.5 km/h 67 % 0 mm
14:31 19.9 °C 13.8 °C 1027 hPa East 6.4 km/h 7.4 km/h 68 % 0 mm
14:37 19.8 °C 13.8 °C 1027 hPa ENE 5.3 km/h 14.8 km/h 68 % 0 mm
14:42 19.7 °C 13.6 °C 1027 hPa ENE 8.9 km/h 18.5 km/h 68 % 0 mm
14:47 19.5 °C 13.9 °C 1026.6 hPa ENE 6.6 km/h 16.7 km/h 70 % 0 mm
14:52 19.4 °C 14 °C 1026.6 hPa ENE 6.4 km/h 11.1 km/h 71 % 0 mm
14:57 19.2 °C 13.8 °C 1026.6 hPa East 5 km/h 9.3 km/h 71 % 0 mm
15:02 19.1 °C 14.1 °C 1026.6 hPa NE 6.4 km/h 11.1 km/h 73 % 0 mm
15:07 18.9 °C 14.2 °C 1026.6 hPa ENE 7.9 km/h 13 km/h 74 % 0 mm
15:12 18.8 °C 14.1 °C 1026.6 hPa East 3.4 km/h 8 km/h 74 % 0 mm
15:17 18.7 °C 14 °C 1026.6 hPa East 6.8 km/h 14.8 km/h 74 % 0 mm
15:22 18.6 °C 14.1 °C 1026.6 hPa ENE 5 km/h 5.6 km/h 75 % 0 mm
15:27 18.6 °C 14.2 °C 1026.3 hPa ENE 7.4 km/h 11.3 km/h 76 % 0 mm
15:32 18.5 °C 14.2 °C 1026.3 hPa ENE 4.8 km/h 11.3 km/h 76 % 0 mm
15:37 18.5 °C 14.4 °C 1026.3 hPa ENE 5 km/h 9.3 km/h 77 % 0 mm
15:42 18.6 °C 14.4 °C 1026.3 hPa East 4.7 km/h 5.6 km/h 77 % 0 mm
15:47 18.7 °C 14.6 °C 1026.3 hPa ENE 6 km/h 9.3 km/h 77 % 0 mm
15:52 18.7 °C 14.6 °C 1026.3 hPa ENE 5.5 km/h 5.6 km/h 77 % 0 mm
15:57 18.6 °C 14.5 °C 1026.3 hPa ENE 8.7 km/h 16.1 km/h 77 % 0 mm
16:02 18.6 °C 14.4 °C 1026.3 hPa East 6 km/h 6 km/h 77 % 0 mm
16:08 18.5 °C 14.6 °C 1026 hPa ENE 3.1 km/h 5.6 km/h 78 % 0 mm
16:13 18.4 °C 14.5 °C 1026 hPa ENE 4.3 km/h 11.1 km/h 78 % 0 mm
16:18 18.3 °C 14.4 °C 1026 hPa ENE 5.3 km/h 14.8 km/h 78 % 0 mm
16:23 18.2 °C 14.5 °C 1026 hPa ENE 3.5 km/h 9.7 km/h 79 % 0 mm
16:28 18.2 °C 14.7 °C 1026 hPa ENE 2.7 km/h 5.6 km/h 80 % 0 mm
16:33 18.2 °C 14.4 °C 1026 hPa East 4.2 km/h 11.3 km/h 79 % 0 mm
16:38 18.2 °C 14.7 °C 1026 hPa East 2.7 km/h 5.6 km/h 80 % 0 mm
16:43 18.2 °C 14.8 °C 1026 hPa ENE 3.2 km/h 3.7 km/h 81 % 0 mm
16:48 18.2 °C 14.8 °C 1026 hPa ENE 0.6 km/h 1.9 km/h 81 % 0 mm
16:51 18.2 °C 14.8 °C 1026 hPa ENE 1.6 km/h 4.8 km/h 81 % 0 mm
16:56 18.2 °C 14.8 °C 1026 hPa ENE 1.6 km/h 4.8 km/h 81 % 0 mm
17:01 18.2 °C 14.8 °C 1025.6 hPa Calm   1.9 km/h 81 % 0 mm
17:06 18.2 °C 14.7 °C 1026 hPa SE 1.1 km/h 5.6 km/h 80 % 0 mm
17:11 18.2 °C 14.4 °C 1026 hPa SE 0.5 km/h 1.9 km/h 79 % 0 mm
17:16 18.2 °C 14.4 °C 1025.6 hPa SE 0.8 km/h 5.6 km/h 79 % 0 mm
17:21 18.1 °C 14.2 °C 1026 hPa SE 1 km/h 5.6 km/h 78 % 0 mm
17:26 18.1 °C 14.3 °C 1025.6 hPa SE 1.3 km/h 5.6 km/h 79 % 0 mm
17:31 18 °C 14.3 °C 1025.6 hPa Calm   5.6 km/h 79 % 0 mm
17:36 18 °C 14.3 °C 1025.6 hPa SE 1 km/h 3.2 km/h 79 % 0 mm
17:41 17.9 °C 14.4 °C 1026 hPa SE 1 km/h 3.7 km/h 80 % 0 mm
17:46 17.9 °C 14.4 °C 1025.6 hPa SE 0.2 km/h 1.9 km/h 80 % 0 mm
17:51 17.8 °C 14.3 °C 1025.6 hPa SE 1 km/h 3.7 km/h 80 % 0 mm
17:56 17.8 °C 14.3 °C 1027.3 hPa SE 0.3 km/h 3.7 km/h 80 % 0 mm
18:01 17.8 °C 14.3 °C 1025.6 hPa SE 0.5 km/h 3.7 km/h 80 % 0 mm
18:06 17.7 °C 14.4 °C 1025.6 hPa SE 1.1 km/h 3.7 km/h 81 % 0 mm
18:11 17.7 °C 14.4 °C 1026 hPa Calm   1.9 km/h 81 % 0 mm
18:16 17.6 °C 14.3 °C 1025.6 hPa Calm   1.9 km/h 81 % 0 mm
18:18 17.6 °C 14.3 °C 1026 hPa SE 0.5 km/h 1.9 km/h 81 % 0 mm
18:23 17.6 °C 14.3 °C 1026 hPa SE 0.3 km/h 5.6 km/h 81 % 0 mm
18:28 17.5 °C 14.2 °C 1025.6 hPa SE 5.1 km/h 6.4 km/h 81 % 0 mm
18:33 17.4 °C 14.3 °C 1025.6 hPa SE 0.2 km/h 1.9 km/h 82 % 0 mm
18:38 17.4 °C 14.3 °C 1025.6 hPa SSE 2.1 km/h 3.7 km/h 82 % 0 mm
18:44 17.3 °C 14.2 °C 1025.6 hPa SE 1.3 km/h 5.6 km/h 82 % 0 mm
18:49 17.3 °C 14.2 °C 1025.6 hPa Calm   1.9 km/h 82 % 0 mm
18:54 17.2 °C 14.1 °C 1025.6 hPa SE 0.3 km/h 5.6 km/h 82 % 0 mm
18:59 17.2 °C 14.3 °C 1025.6 hPa Calm   1.9 km/h 83 % 0 mm
19:04 17.1 °C 14.2 °C 1026 hPa SE 0.5 km/h 3.7 km/h 83 % 0 mm
19:09 17 °C 14.1 °C 1025.6 hPa SE 0.3 km/h 1.9 km/h 83 % 0 mm
19:14 16.9 °C 14.1 °C 1026 hPa SE 0.2 km/h 1.9 km/h 83 % 0 mm
19:19 16.9 °C 14 °C 1025.6 hPa Calm   1.9 km/h 83 % 0 mm
19:24 16.8 °C 13.9 °C 1025.6 hPa SSE 3.1 km/h 7.4 km/h 83 % 0 mm
19:29 16.8 °C 14.1 °C 1025.6 hPa Calm     84 % 0 mm
19:34 16.8 °C 14.1 °C 1025.6 hPa SSE 2.9 km/h 5.6 km/h 84 % 0 mm
19:39 16.7 °C 14 °C 1025.6 hPa SE 0.6 km/h 1.9 km/h 84 % 0 mm
19:44 16.7 °C 13.9 °C 1025.3 hPa SE 0.3 km/h 1.9 km/h 84 % 0 mm
19:49 16.6 °C 13.9 °C 1025.3 hPa SE 3.2 km/h 4.8 km/h 84 % 0 mm
19:54 16.6 °C 14 °C 1025.3 hPa SE 1 km/h 1.9 km/h 85 % 0 mm
20:00 16.5 °C 13.9 °C 1025.3 hPa SE 0.2 km/h 3.7 km/h 85 % 0 mm
20:05 16.5 °C 13.9 °C 1025.3 hPa SE 1.3 km/h 1.9 km/h 85 % 0 mm
20:10 16.4 °C 13.9 °C 1025.3 hPa Calm   1.6 km/h 85 % 0 mm
20:15 16.4 °C 13.9 °C 1025.3 hPa Calm     85 % 0 mm
20:20 16.4 °C 13.8 °C 1025.3 hPa Calm   3.7 km/h 85 % 0 mm
20:25 16.3 °C 14 °C 1025.3 hPa Calm   1.9 km/h 86 % 0 mm
20:30 16.3 °C 14 °C 1025.3 hPa SE 0.2 km/h 1.9 km/h 86 % 0 mm
20:35 16.3 °C 14.2 °C 1025.3 hPa SE 0.2 km/h 3.7 km/h 87 % 0 mm
20:40 16.3 °C 14.1 °C 1025.3 hPa Calm     87 % 0 mm
20:45 16.3 °C 14.1 °C 1025.6 hPa SE 0.3 km/h   87 % 0 mm
20:50 16.3 °C 14.1 °C 1025.6 hPa Calm     87 % 0 mm
20:55 16.3 °C 14.3 °C 1025.3 hPa SE 0.2 km/h 1.9 km/h 88 % 0 mm
21:00 16.3 °C 14.3 °C 1025.6 hPa SE 0.2 km/h   88 % 0 mm
21:05 16.2 °C 14.2 °C 1025.3 hPa Calm     88 % 0 mm
21:10 16.2 °C 14.2 °C 1025.6 hPa SE 1.3 km/h 5.6 km/h 88 % 0 mm
21:15 16.2 °C 14.2 °C 1026 hPa Calm     88 % 0 mm
21:20 16.2 °C 14.2 °C 1025.6 hPa Calm     88 % 0 mm
21:25 16.2 °C 14.2 °C 1025.6 hPa SE 0.3 km/h 1.9 km/h 88 % 0 mm
21:31 16.2 °C 14.4 °C 1025.3 hPa Calm     89 % 0 mm
21:33 16.2 °C 14.4 °C 1025.6 hPa Calm     89 % 0 mm
21:38 16.2 °C 14.4 °C 1025.6 hPa Calm   1.9 km/h 89 % 0 mm
21:43 16.2 °C 14.4 °C 1025.3 hPa Calm   1.6 km/h 89 % 0 mm
21:48 16.2 °C 14.4 °C 1025.3 hPa SE 0.8 km/h 3.7 km/h 89 % 0 mm
21:53 16.2 °C 14.4 °C 1024.9 hPa Calm   1.9 km/h 89 % 0 mm
21:58 16.2 °C 14.4 °C 1024.9 hPa SE 0.2 km/h 1.9 km/h 89 % 0 mm
22:03 16.2 °C 14.4 °C 1024.9 hPa Calm     89 % 0 mm
22:08 16.2 °C 14.4 °C 1024.9 hPa Calm     89 % 0 mm
22:13 16.2 °C 14.4 °C 1024.9 hPa SE 0.3 km/h   89 % 0 mm
22:18 16.2 °C 14.3 °C 1024.9 hPa Calm   1.9 km/h 89 % 0 mm
22:23 16.2 °C 14.3 °C 1024.9 hPa Calm     89 % 0 mm
22:28 16.2 °C 14.3 °C 1024.9 hPa Calm     89 % 0 mm
22:33 16.2 °C 14.3 °C 1024.6 hPa Calm     89 % 0 mm
22:39 16.2 °C 14.5 °C 1024.6 hPa Calm     90 % 0 mm
22:44 16.2 °C 14.5 °C 1024.6 hPa Calm     90 % 0 mm
22:49 16.2 °C 14.5 °C 1024.6 hPa Calm     90 % 0 mm
22:54 16.2 °C 14.5 °C 1024.6 hPa Calm     90 % 0 mm
22:59 16.2 °C 14.5 °C 1024.3 hPa Calm   1.9 km/h 90 % 0 mm
23:04 16.2 °C 14.5 °C 1024.3 hPa Calm     90 % 0 mm
23:09 16.2 °C 14.5 °C 1024.3 hPa Calm   1.9 km/h 90 % 0 mm
23:14 16.2 °C 14.7 °C 1024.3 hPa Calm     91 % 0 mm
23:20 16.2 °C 14.7 °C 1024.3 hPa Calm     91 % 0 mm
23:25 16.2 °C 14.8 °C 1024.3 hPa Calm     91 % 0 mm
23:30 16.2 °C 14.8 °C 1024.3 hPa Calm   1.9 km/h 91 % 0 mm
23:35 16.3 °C 14.8 °C 1024.6 hPa Calm     91 % 0 mm
23:40 16.3 °C 14.8 °C 1024.3 hPa Calm     91 % 0 mm
23:44 16.3 °C 14.8 °C 1024.3 hPa Calm   1.9 km/h 91 % 0 mm
23:49 16.3 °C 14.8 °C 1024.6 hPa Calm     91 % 0 mm
23:54 16.3 °C 15.1 °C 1024.6 hPa Calm     92 % 0 mm
23:59 16.4 °C 15.1 °C 1024.3 hPa Calm   1.9 km/h 92 % 0 mm
Crab Meadow Weather
Compliments of Weather Underground - 3 mb

Script developed by  Jim McMurry - jmcmurry@mwt.net Adapted for the template by  Wim van der Kuil - Leuven-Template.eu

Weather Terms: Winter Storm Watch - Conditions are favorable for hazardous winter weather conditions including heavy snow, blizzard conditions, or significant accumulations of freezing rain or sleet. These watches are issued by the Weather Service Forecast Office in Upton and are usually issued 12 to 36 hours in advance of the event.